sensor_id;sensor_type;location;lat;lon;timestamp;temperature;humidity
15546;DHT22;7874;48.870;11.074;2023-07-20T00:00:16;20.00;99.40
15546;DHT22;7874;48.870;11.074;2023-07-20T00:02:43;19.90;99.60
15546;DHT22;7874;48.870;11.074;2023-07-20T00:05:10;19.90;99.60
15546;DHT22;7874;48.870;11.074;2023-07-20T00:07:37;19.80;99.90
15546;DHT22;7874;48.870;11.074;2023-07-20T00:10:04;19.70;99.90
15546;DHT22;7874;48.870;11.074;2023-07-20T00:12:31;19.70;99.90
15546;DHT22;7874;48.870;11.074;2023-07-20T00:14:59;19.70;99.90
15546;DHT22;7874;48.870;11.074;2023-07-20T00:17:26;19.70;99.90
15546;DHT22;7874;48.870;11.074;2023-07-20T00:19:53;19.60;99.90
15546;DHT22;7874;48.870;11.074;2023-07-20T00:22:20;19.50;99.90
15546;DHT22;7874;48.870;11.074;2023-07-20T00:24:47;19.40;99.90
15546;DHT22;7874;48.870;11.074;2023-07-20T00:27:15;19.50;99.90
15546;DHT22;7874;48.870;11.074;2023-07-20T00:29:41;19.40;99.90
15546;DHT22;7874;48.870;11.074;2023-07-20T00:32:10;19.40;99.90
15546;DHT22;7874;48.870;11.074;2023-07-20T00:34:36;19.40;99.90
15546;DHT22;7874;48.870;11.074;2023-07-20T00:37:04;19.40;99.90
15546;DHT22;7874;48.870;11.074;2023-07-20T00:39:30;19.30;99.90
15546;DHT22;7874;48.870;11.074;2023-07-20T00:41:58;19.30;99.90
15546;DHT22;7874;48.870;11.074;2023-07-20T00:44:25;19.20;99.90
15546;DHT22;7874;48.870;11.074;2023-07-20T00:46:52;19.20;99.90
15546;DHT22;7874;48.870;11.074;2023-07-20T00:49:20;19.20;99.90
15546;DHT22;7874;48.870;11.074;2023-07-20T00:51:48;19.10;99.90
15546;DHT22;7874;48.870;11.074;2023-07-20T00:54:15;19.10;99.90
15546;DHT22;7874;48.870;11.074;2023-07-20T00:56:43;19.00;99.90
15546;DHT22;7874;48.870;11.074;2023-07-20T00:59:11;19.00;99.90
15546;DHT22;7874;48.870;11.074;2023-07-20T01:01:37;19.10;99.90
15546;DHT22;7874;48.870;11.074;2023-07-20T01:04:04;19.20;99.90
15546;DHT22;7874;48.870;11.074;2023-07-20T01:06:39;19.10;99.90
15546;DHT22;7874;48.870;11.074;2023-07-20T01:09:13;19.00;99.90
15546;DHT22;7874;48.870;11.074;2023-07-20T01:11:49;19.10;99.90
15546;DHT22;7874;48.870;11.074;2023-07-20T01:14:20;19.00;99.90
15546;DHT22;7874;48.870;11.074;2023-07-20T01:16:47;18.90;99.90
15546;DHT22;7874;48.870;11.074;2023-07-20T01:19:15;18.90;99.90
15546;DHT22;7874;48.870;11.074;2023-07-20T01:21:48;19.00;99.90
15546;DHT22;7874;48.870;11.074;2023-07-20T01:24:47;18.90;99.90
15546;DHT22;7874;48.870;11.074;2023-07-20T01:27:41;18.90;99.90
15546;DHT22;7874;48.870;11.074;2023-07-20T01:30:21;18.80;99.90
15546;DHT22;7874;48.870;11.074;2023-07-20T01:32:54;18.90;99.90
15546;DHT22;7874;48.870;11.074;2023-07-20T01:35:23;19.00;99.90
15546;DHT22;7874;48.870;11.074;2023-07-20T01:37:52;18.90;99.90
15546;DHT22;7874;48.870;11.074;2023-07-20T01:40:20;19.00;99.90
15546;DHT22;7874;48.870;11.074;2023-07-20T01:42:49;19.00;99.90
15546;DHT22;7874;48.870;11.074;2023-07-20T01:45:16;18.90;99.90
15546;DHT22;7874;48.870;11.074;2023-07-20T01:47:43;18.90;99.90
15546;DHT22;7874;48.870;11.074;2023-07-20T01:50:11;18.90;99.90
15546;DHT22;7874;48.870;11.074;2023-07-20T01:52:38;18.80;99.90
15546;DHT22;7874;48.870;11.074;2023-07-20T01:55:06;18.70;99.90
15546;DHT22;7874;48.870;11.074;2023-07-20T01:57:33;18.70;99.90
15546;DHT22;7874;48.870;11.074;2023-07-20T02:00:00;18.70;99.90
15546;DHT22;7874;48.870;11.074;2023-07-20T02:02:27;18.70;99.90
15546;DHT22;7874;48.870;11.074;2023-07-20T02:04:54;18.60;99.90
15546;DHT22;7874;48.870;11.074;2023-07-20T02:07:22;18.70;99.90
15546;DHT22;7874;48.870;11.074;2023-07-20T02:09:49;18.60;99.90
15546;DHT22;7874;48.870;11.074;2023-07-20T02:12:16;18.70;99.90
15546;DHT22;7874;48.870;11.074;2023-07-20T02:14:43;18.70;99.90
15546;DHT22;7874;48.870;11.074;2023-07-20T02:17:09;18.60;99.90
15546;DHT22;7874;48.870;11.074;2023-07-20T02:19:37;18.60;99.90
15546;DHT22;7874;48.870;11.074;2023-07-20T02:22:04;18.70;99.90
15546;DHT22;7874;48.870;11.074;2023-07-20T02:24:34;18.50;99.90
15546;DHT22;7874;48.870;11.074;2023-07-20T02:29:27;18.40;99.90
15546;DHT22;7874;48.870;11.074;2023-07-20T02:31:54;18.30;99.90
15546;DHT22;7874;48.870;11.074;2023-07-20T02:34:21;18.40;99.90
15546;DHT22;7874;48.870;11.074;2023-07-20T02:36:48;18.40;99.90
15546;DHT22;7874;48.870;11.074;2023-07-20T02:39:15;18.30;99.90
15546;DHT22;7874;48.870;11.074;2023-07-20T02:41:42;18.40;99.90
15546;DHT22;7874;48.870;11.074;2023-07-20T02:44:09;18.20;99.90
15546;DHT22;7874;48.870;11.074;2023-07-20T02:46:38;18.10;99.90
15546;DHT22;7874;48.870;11.074;2023-07-20T02:49:06;18.10;99.90
15546;DHT22;7874;48.870;11.074;2023-07-20T02:51:33;18.20;99.90
15546;DHT22;7874;48.870;11.074;2023-07-20T02:54:00;18.20;99.90
15546;DHT22;7874;48.870;11.074;2023-07-20T02:56:26;18.10;99.90
15546;DHT22;7874;48.870;11.074;2023-07-20T02:58:53;18.00;99.90
15546;DHT22;7874;48.870;11.074;2023-07-20T03:01:20;18.00;99.90
15546;DHT22;7874;48.870;11.074;2023-07-20T03:03:49;18.00;99.90
15546;DHT22;7874;48.870;11.074;2023-07-20T03:06:17;18.00;99.90
15546;DHT22;7874;48.870;11.074;2023-07-20T03:08:44;18.00;99.90
15546;DHT22;7874;48.870;11.074;2023-07-20T03:11:13;18.10;99.90
15546;DHT22;7874;48.870;11.074;2023-07-20T03:13:41;18.10;99.90
15546;DHT22;7874;48.870;11.074;2023-07-20T03:16:08;18.10;99.90
15546;DHT22;7874;48.870;11.074;2023-07-20T03:18:36;18.00;99.90
15546;DHT22;7874;48.870;11.074;2023-07-20T03:21:05;18.00;99.90
15546;DHT22;7874;48.870;11.074;2023-07-20T03:23:32;18.00;99.90
15546;DHT22;7874;48.870;11.074;2023-07-20T03:26:00;18.00;99.90
15546;DHT22;7874;48.870;11.074;2023-07-20T03:28:30;18.00;99.90
15546;DHT22;7874;48.870;11.074;2023-07-20T03:30:57;18.00;99.90
15546;DHT22;7874;48.870;11.074;2023-07-20T03:33:26;17.90;99.90
15546;DHT22;7874;48.870;11.074;2023-07-20T03:35:53;18.00;99.90
15546;DHT22;7874;48.870;11.074;2023-07-20T03:38:22;18.10;99.90
15546;DHT22;7874;48.870;11.074;2023-07-20T03:40:52;18.20;99.90
15546;DHT22;7874;48.870;11.074;2023-07-20T03:43:20;18.30;99.90
15546;DHT22;7874;48.870;11.074;2023-07-20T03:45:47;18.30;99.90
15546;DHT22;7874;48.870;11.074;2023-07-20T03:48:14;18.30;99.90
15546;DHT22;7874;48.870;11.074;2023-07-20T03:50:41;18.40;99.90
15546;DHT22;7874;48.870;11.074;2023-07-20T03:53:08;18.40;99.90
15546;DHT22;7874;48.870;11.074;2023-07-20T03:55:36;18.40;99.90
15546;DHT22;7874;48.870;11.074;2023-07-20T03:58:03;18.40;99.90
15546;DHT22;7874;48.870;11.074;2023-07-20T04:00:31;18.50;99.90
15546;DHT22;7874;48.870;11.074;2023-07-20T04:03:01;18.50;99.90
15546;DHT22;7874;48.870;11.074;2023-07-20T04:05:28;18.50;99.90
15546;DHT22;7874;48.870;11.074;2023-07-20T04:07:58;18.50;99.90
15546;DHT22;7874;48.870;11.074;2023-07-20T04:10:25;18.60;99.90
15546;DHT22;7874;48.870;11.074;2023-07-20T04:12:53;18.60;99.90
15546;DHT22;7874;48.870;11.074;2023-07-20T04:15:19;18.50;99.90
15546;DHT22;7874;48.870;11.074;2023-07-20T04:17:46;18.50;99.90
15546;DHT22;7874;48.870;11.074;2023-07-20T04:20:13;18.60;99.90
15546;DHT22;7874;48.870;11.074;2023-07-20T04:22:40;18.60;99.90
15546;DHT22;7874;48.870;11.074;2023-07-20T04:25:08;18.50;99.90
15546;DHT22;7874;48.870;11.074;2023-07-20T04:27:35;18.60;99.90
15546;DHT22;7874;48.870;11.074;2023-07-20T04:30:06;18.80;99.90
15546;DHT22;7874;48.870;11.074;2023-07-20T04:32:34;18.90;99.90
15546;DHT22;7874;48.870;11.074;2023-07-20T04:35:01;18.90;99.90
15546;DHT22;7874;48.870;11.074;2023-07-20T04:37:28;19.00;99.90
15546;DHT22;7874;48.870;11.074;2023-07-20T04:39:55;19.00;99.90
15546;DHT22;7874;48.870;11.074;2023-07-20T04:42:22;18.90;99.90
15546;DHT22;7874;48.870;11.074;2023-07-20T04:44:48;18.80;99.90
15546;DHT22;7874;48.870;11.074;2023-07-20T04:47:17;18.80;99.90
15546;DHT22;7874;48.870;11.074;2023-07-20T04:49:44;19.00;99.90
15546;DHT22;7874;48.870;11.074;2023-07-20T04:52:11;19.00;99.90
15546;DHT22;7874;48.870;11.074;2023-07-20T04:54:38;19.10;99.90
15546;DHT22;7874;48.870;11.074;2023-07-20T04:57:10;19.00;99.90
15546;DHT22;7874;48.870;11.074;2023-07-20T04:59:37;19.10;99.90
15546;DHT22;7874;48.870;11.074;2023-07-20T05:02:04;19.20;99.90
15546;DHT22;7874;48.870;11.074;2023-07-20T05:04:32;19.00;99.90
15546;DHT22;7874;48.870;11.074;2023-07-20T05:07:00;19.10;99.90
15546;DHT22;7874;48.870;11.074;2023-07-20T05:09:26;19.20;99.90
15546;DHT22;7874;48.870;11.074;2023-07-20T05:11:53;19.30;99.60
15546;DHT22;7874;48.870;11.074;2023-07-20T05:14:20;19.30;99.90
15546;DHT22;7874;48.870;11.074;2023-07-20T05:18:13;19.30;99.80
15546;DHT22;7874;48.870;11.074;2023-07-20T05:20:45;19.40;99.90
15546;DHT22;7874;48.870;11.074;2023-07-20T05:23:14;19.40;99.90
15546;DHT22;7874;48.870;11.074;2023-07-20T05:25:41;19.50;99.60
15546;DHT22;7874;48.870;11.074;2023-07-20T05:28:08;19.60;99.70
15546;DHT22;7874;48.870;11.074;2023-07-20T05:30:35;19.70;99.30
15546;DHT22;7874;48.870;11.074;2023-07-20T05:33:02;19.80;99.70
15546;DHT22;7874;48.870;11.074;2023-07-20T05:35:30;19.90;99.80
15546;DHT22;7874;48.870;11.074;2023-07-20T05:37:57;20.00;99.60
15546;DHT22;7874;48.870;11.074;2023-07-20T05:40:24;20.10;98.60
15546;DHT22;7874;48.870;11.074;2023-07-20T05:42:50;20.10;99.00
15546;DHT22;7874;48.870;11.074;2023-07-20T05:45:19;20.30;99.10
15546;DHT22;7874;48.870;11.074;2023-07-20T05:47:46;20.50;98.90
15546;DHT22;7874;48.870;11.074;2023-07-20T05:50:13;20.60;98.40
15546;DHT22;7874;48.870;11.074;2023-07-20T05:52:41;20.80;97.80
15546;DHT22;7874;48.870;11.074;2023-07-20T05:55:08;20.90;97.90
15546;DHT22;7874;48.870;11.074;2023-07-20T05:57:35;21.00;97.90
15546;DHT22;7874;48.870;11.074;2023-07-20T06:00:06;21.00;97.80
15546;DHT22;7874;48.870;11.074;2023-07-20T06:02:40;21.10;97.70
15546;DHT22;7874;48.870;11.074;2023-07-20T06:05:08;21.40;97.40
15546;DHT22;7874;48.870;11.074;2023-07-20T06:07:36;21.50;97.70
15546;DHT22;7874;48.870;11.074;2023-07-20T06:10:05;21.70;97.50
15546;DHT22;7874;48.870;11.074;2023-07-20T06:12:32;21.90;96.90
15546;DHT22;7874;48.870;11.074;2023-07-20T06:15:01;22.30;96.60
15546;DHT22;7874;48.870;11.074;2023-07-20T06:17:28;22.80;95.30
15546;DHT22;7874;48.870;11.074;2023-07-20T06:19:55;23.00;94.90
15546;DHT22;7874;48.870;11.074;2023-07-20T06:22:22;23.10;95.00
15546;DHT22;7874;48.870;11.074;2023-07-20T06:24:49;23.20;95.00
15546;DHT22;7874;48.870;11.074;2023-07-20T06:27:17;23.20;94.70
15546;DHT22;7874;48.870;11.074;2023-07-20T06:29:43;23.30;94.50
15546;DHT22;7874;48.870;11.074;2023-07-20T06:32:10;23.30;95.10
15546;DHT22;7874;48.870;11.074;2023-07-20T06:34:37;23.20;94.60
15546;DHT22;7874;48.870;11.074;2023-07-20T06:37:04;23.30;95.30
15546;DHT22;7874;48.870;11.074;2023-07-20T06:39:31;23.40;94.50
15546;DHT22;7874;48.870;11.074;2023-07-20T06:41:57;23.60;94.40
15546;DHT22;7874;48.870;11.074;2023-07-20T06:44:26;24.00;94.00
15546;DHT22;7874;48.870;11.074;2023-07-20T06:46:52;23.90;94.10
15546;DHT22;7874;48.870;11.074;2023-07-20T06:49:27;24.00;93.30
15546;DHT22;7874;48.870;11.074;2023-07-20T06:51:54;24.40;93.40
15546;DHT22;7874;48.870;11.074;2023-07-20T06:54:20;24.30;93.00
15546;DHT22;7874;48.870;11.074;2023-07-20T06:56:47;24.50;92.80
15546;DHT22;7874;48.870;11.074;2023-07-20T06:59:14;24.50;93.40
15546;DHT22;7874;48.870;11.074;2023-07-20T07:01:42;24.80;92.60
15546;DHT22;7874;48.870;11.074;2023-07-20T07:04:09;25.00;92.50
15546;DHT22;7874;48.870;11.074;2023-07-20T07:06:36;24.90;92.60
15546;DHT22;7874;48.870;11.074;2023-07-20T07:09:03;24.80;92.30
15546;DHT22;7874;48.870;11.074;2023-07-20T07:11:30;25.00;92.20
15546;DHT22;7874;48.870;11.074;2023-07-20T07:13:57;24.90;92.50
15546;DHT22;7874;48.870;11.074;2023-07-20T07:16:24;24.90;92.50
15546;DHT22;7874;48.870;11.074;2023-07-20T07:18:52;25.00;92.30
15546;DHT22;7874;48.870;11.074;2023-07-20T07:21:19;25.50;91.10
15546;DHT22;7874;48.870;11.074;2023-07-20T07:23:46;26.00;91.10
15546;DHT22;7874;48.870;11.074;2023-07-20T07:26:13;26.10;90.60
15546;DHT22;7874;48.870;11.074;2023-07-20T07:28:40;26.10;90.70
15546;DHT22;7874;48.870;11.074;2023-07-20T07:31:07;26.50;90.40
15546;DHT22;7874;48.870;11.074;2023-07-20T07:33:33;26.70;89.30
15546;DHT22;7874;48.870;11.074;2023-07-20T07:36:02;26.90;88.80
15546;DHT22;7874;48.870;11.074;2023-07-20T07:38:29;26.80;88.50
15546;DHT22;7874;48.870;11.074;2023-07-20T07:40:56;26.60;90.20
15546;DHT22;7874;48.870;11.074;2023-07-20T07:43:22;26.40;89.40
15546;DHT22;7874;48.870;11.074;2023-07-20T07:45:49;26.50;90.00
15546;DHT22;7874;48.870;11.074;2023-07-20T07:48:16;26.70;90.10
15546;DHT22;7874;48.870;11.074;2023-07-20T07:50:43;26.50;88.60
15546;DHT22;7874;48.870;11.074;2023-07-20T07:53:11;26.60;90.00
15546;DHT22;7874;48.870;11.074;2023-07-20T07:55:38;26.90;86.50
15546;DHT22;7874;48.870;11.074;2023-07-20T07:58:05;26.90;88.00
15546;DHT22;7874;48.870;11.074;2023-07-20T08:00:31;27.10;86.90
15546;DHT22;7874;48.870;11.074;2023-07-20T08:02:58;27.10;86.20
15546;DHT22;7874;48.870;11.074;2023-07-20T08:07:02;27.30;84.70
15546;DHT22;7874;48.870;11.074;2023-07-20T08:09:28;27.30;85.10
15546;DHT22;7874;48.870;11.074;2023-07-20T08:11:55;27.10;83.20
15546;DHT22;7874;48.870;11.074;2023-07-20T08:14:22;27.10;81.70
15546;DHT22;7874;48.870;11.074;2023-07-20T08:16:49;26.90;81.80
15546;DHT22;7874;48.870;11.074;2023-07-20T08:19:15;26.90;82.80
15546;DHT22;7874;48.870;11.074;2023-07-20T08:21:42;27.20;82.60
15546;DHT22;7874;48.870;11.074;2023-07-20T08:24:10;27.20;81.80
15546;DHT22;7874;48.870;11.074;2023-07-20T08:26:37;27.30;83.00
15546;DHT22;7874;48.870;11.074;2023-07-20T08:29:04;27.40;82.30
15546;DHT22;7874;48.870;11.074;2023-07-20T08:31:31;27.30;79.90
15546;DHT22;7874;48.870;11.074;2023-07-20T08:33:57;27.10;81.70
15546;DHT22;7874;48.870;11.074;2023-07-20T08:36:24;27.50;81.40
15546;DHT22;7874;48.870;11.074;2023-07-20T08:38:51;27.50;79.50
15546;DHT22;7874;48.870;11.074;2023-07-20T08:41:19;28.00;79.70
15546;DHT22;7874;48.870;11.074;2023-07-20T08:43:47;27.80;79.10
15546;DHT22;7874;48.870;11.074;2023-07-20T08:46:14;27.20;80.20
15546;DHT22;7874;48.870;11.074;2023-07-20T08:48:42;27.10;79.70
15546;DHT22;7874;48.870;11.074;2023-07-20T08:51:11;27.80;79.70
15546;DHT22;7874;48.870;11.074;2023-07-20T08:53:38;28.30;77.40
15546;DHT22;7874;48.870;11.074;2023-07-20T08:56:06;28.60;76.10
15546;DHT22;7874;48.870;11.074;2023-07-20T08:58:35;28.70;78.20
15546;DHT22;7874;48.870;11.074;2023-07-20T09:01:03;28.60;74.90
15546;DHT22;7874;48.870;11.074;2023-07-20T09:03:30;28.30;75.20
15546;DHT22;7874;48.870;11.074;2023-07-20T09:05:57;28.40;74.10
15546;DHT22;7874;48.870;11.074;2023-07-20T09:08:23;28.50;75.50
15546;DHT22;7874;48.870;11.074;2023-07-20T09:10:50;29.60;74.40
15546;DHT22;7874;48.870;11.074;2023-07-20T09:13:17;30.60;71.40
15546;DHT22;7874;48.870;11.074;2023-07-20T09:15:53;30.30;68.40
15546;DHT22;7874;48.870;11.074;2023-07-20T09:18:24;30.70;68.80
15546;DHT22;7874;48.870;11.074;2023-07-20T09:20:51;31.10;69.00
15546;DHT22;7874;48.870;11.074;2023-07-20T09:23:17;31.50;69.90
15546;DHT22;7874;48.870;11.074;2023-07-20T09:25:44;31.80;68.40
15546;DHT22;7874;48.870;11.074;2023-07-20T09:28:11;31.70;68.40
15546;DHT22;7874;48.870;11.074;2023-07-20T09:30:38;31.50;65.70
15546;DHT22;7874;48.870;11.074;2023-07-20T09:33:18;31.90;65.70
15546;DHT22;7874;48.870;11.074;2023-07-20T09:35:45;32.20;67.80
15546;DHT22;7874;48.870;11.074;2023-07-20T09:38:11;32.20;66.40
15546;DHT22;7874;48.870;11.074;2023-07-20T09:40:41;32.60;63.90
15546;DHT22;7874;48.870;11.074;2023-07-20T09:43:08;32.50;67.20
15546;DHT22;7874;48.870;11.074;2023-07-20T09:45:35;32.80;64.80
15546;DHT22;7874;48.870;11.074;2023-07-20T09:48:07;32.70;64.50
15546;DHT22;7874;48.870;11.074;2023-07-20T09:50:39;31.70;64.80
15546;DHT22;7874;48.870;11.074;2023-07-20T09:53:08;32.10;65.00
15546;DHT22;7874;48.870;11.074;2023-07-20T09:55:36;31.60;65.50
15546;DHT22;7874;48.870;11.074;2023-07-20T09:58:04;32.00;65.10
15546;DHT22;7874;48.870;11.074;2023-07-20T10:00:33;33.10;63.10
15546;DHT22;7874;48.870;11.074;2023-07-20T10:03:03;33.60;62.90
15546;DHT22;7874;48.870;11.074;2023-07-20T10:05:32;33.40;61.70
15546;DHT22;7874;48.870;11.074;2023-07-20T10:08:02;33.60;62.20
15546;DHT22;7874;48.870;11.074;2023-07-20T10:10:33;32.20;60.90
15546;DHT22;7874;48.870;11.074;2023-07-20T10:13:01;33.20;61.10
15546;DHT22;7874;48.870;11.074;2023-07-20T10:15:30;33.20;60.90
15546;DHT22;7874;48.870;11.074;2023-07-20T10:18:02;33.60;61.40
15546;DHT22;7874;48.870;11.074;2023-07-20T10:20:33;31.90;61.80
15546;DHT22;7874;48.870;11.074;2023-07-20T10:23:03;31.00;64.40
15546;DHT22;7874;48.870;11.074;2023-07-20T10:25:30;30.90;62.70
15546;DHT22;7874;48.870;11.074;2023-07-20T10:27:58;30.90;64.70
15546;DHT22;7874;48.870;11.074;2023-07-20T10:30:26;29.80;63.90
15546;DHT22;7874;48.870;11.074;2023-07-20T10:32:53;29.70;65.30
15546;DHT22;7874;48.870;11.074;2023-07-20T10:35:20;31.70;65.20
15546;DHT22;7874;48.870;11.074;2023-07-20T10:37:50;33.00;63.70
15546;DHT22;7874;48.870;11.074;2023-07-20T10:40:31;33.50;61.60
15546;DHT22;7874;48.870;11.074;2023-07-20T10:43:03;32.50;62.60
15546;DHT22;7874;48.870;11.074;2023-07-20T10:45:42;31.50;62.00
15546;DHT22;7874;48.870;11.074;2023-07-20T10:48:16;29.90;61.80
15546;DHT22;7874;48.870;11.074;2023-07-20T10:50:43;28.80;64.30
15546;DHT22;7874;48.870;11.074;2023-07-20T10:53:13;30.50;61.80
15546;DHT22;7874;48.870;11.074;2023-07-20T10:55:47;31.90;60.40
15546;DHT22;7874;48.870;11.074;2023-07-20T10:58:16;33.00;58.60
15546;DHT22;7874;48.870;11.074;2023-07-20T11:01:00;33.50;59.10
15546;DHT22;7874;48.870;11.074;2023-07-20T11:03:28;33.80;59.50
15546;DHT22;7874;48.870;11.074;2023-07-20T11:05:56;34.40;57.70
15546;DHT22;7874;48.870;11.074;2023-07-20T11:08:38;33.60;59.60
15546;DHT22;7874;48.870;11.074;2023-07-20T11:11:25;32.60;59.70
15546;DHT22;7874;48.870;11.074;2023-07-20T11:13:59;32.90;61.80
15546;DHT22;7874;48.870;11.074;2023-07-20T11:16:40;34.20;61.30
15546;DHT22;7874;48.870;11.074;2023-07-20T11:19:14;34.90;58.00
15546;DHT22;7874;48.870;11.074;2023-07-20T11:21:43;35.00;59.10
15546;DHT22;7874;48.870;11.074;2023-07-20T11:24:10;33.30;60.40
15546;DHT22;7874;48.870;11.074;2023-07-20T11:26:47;33.40;59.20
15546;DHT22;7874;48.870;11.074;2023-07-20T11:29:16;34.00;58.70
15546;DHT22;7874;48.870;11.074;2023-07-20T11:31:44;35.10;56.80
15546;DHT22;7874;48.870;11.074;2023-07-20T11:34:12;35.80;54.80
15546;DHT22;7874;48.870;11.074;2023-07-20T11:36:40;35.90;55.60
15546;DHT22;7874;48.870;11.074;2023-07-20T11:39:08;35.50;56.90
15546;DHT22;7874;48.870;11.074;2023-07-20T11:41:35;36.30;55.40
15546;DHT22;7874;48.870;11.074;2023-07-20T11:44:05;35.90;53.70
15546;DHT22;7874;48.870;11.074;2023-07-20T11:46:33;35.40;54.80
15546;DHT22;7874;48.870;11.074;2023-07-20T11:49:00;34.10;57.30
15546;DHT22;7874;48.870;11.074;2023-07-20T11:51:28;34.80;54.80
15546;DHT22;7874;48.870;11.074;2023-07-20T11:53:55;35.10;57.50
15546;DHT22;7874;48.870;11.074;2023-07-20T11:56:23;35.60;55.40
15546;DHT22;7874;48.870;11.074;2023-07-20T11:58:53;36.40;54.60
15546;DHT22;7874;48.870;11.074;2023-07-20T12:01:23;36.40;53.60
15546;DHT22;7874;48.870;11.074;2023-07-20T12:03:50;36.40;55.60
15546;DHT22;7874;48.870;11.074;2023-07-20T12:06:17;36.40;54.90
15546;DHT22;7874;48.870;11.074;2023-07-20T12:08:44;35.70;54.30
15546;DHT22;7874;48.870;11.074;2023-07-20T12:11:11;35.80;55.70
15546;DHT22;7874;48.870;11.074;2023-07-20T12:13:40;34.60;56.00
15546;DHT22;7874;48.870;11.074;2023-07-20T12:16:10;33.00;56.30
15546;DHT22;7874;48.870;11.074;2023-07-20T12:18:39;32.40;57.20
15546;DHT22;7874;48.870;11.074;2023-07-20T12:21:06;33.60;55.70
15546;DHT22;7874;48.870;11.074;2023-07-20T12:23:38;34.30;55.30
15546;DHT22;7874;48.870;11.074;2023-07-20T12:26:09;34.60;54.00
15546;DHT22;7874;48.870;11.074;2023-07-20T12:28:39;34.10;55.70
15546;DHT22;7874;48.870;11.074;2023-07-20T12:31:06;32.60;56.20
15546;DHT22;7874;48.870;11.074;2023-07-20T12:33:33;31.70;56.50
15546;DHT22;7874;48.870;11.074;2023-07-20T12:36:01;30.30;59.50
15546;DHT22;7874;48.870;11.074;2023-07-20T12:38:28;31.60;59.30
15546;DHT22;7874;48.870;11.074;2023-07-20T12:40:56;31.60;57.70
15546;DHT22;7874;48.870;11.074;2023-07-20T12:43:23;31.50;58.30
15546;DHT22;7874;48.870;11.074;2023-07-20T12:45:50;31.80;59.30
15546;DHT22;7874;48.870;11.074;2023-07-20T12:48:17;33.20;58.60
15546;DHT22;7874;48.870;11.074;2023-07-20T12:50:44;34.30;56.60
15546;DHT22;7874;48.870;11.074;2023-07-20T12:53:12;34.40;56.10
15546;DHT22;7874;48.870;11.074;2023-07-20T12:55:41;33.80;55.40
15546;DHT22;7874;48.870;11.074;2023-07-20T12:58:08;32.80;57.40
15546;DHT22;7874;48.870;11.074;2023-07-20T13:00:35;31.50;57.70
15546;DHT22;7874;48.870;11.074;2023-07-20T13:03:02;32.70;56.90
15546;DHT22;7874;48.870;11.074;2023-07-20T13:05:36;34.40;56.00
15546;DHT22;7874;48.870;11.074;2023-07-20T13:08:03;34.80;55.00
15546;DHT22;7874;48.870;11.074;2023-07-20T13:10:33;35.10;54.20
15546;DHT22;7874;48.870;11.074;2023-07-20T13:13:00;35.20;54.30
15546;DHT22;7874;48.870;11.074;2023-07-20T13:15:30;34.00;55.50
15546;DHT22;7874;48.870;11.074;2023-07-20T13:18:00;34.50;55.30
15546;DHT22;7874;48.870;11.074;2023-07-20T13:20:30;35.40;54.70
15546;DHT22;7874;48.870;11.074;2023-07-20T13:22:58;34.70;53.80
15546;DHT22;7874;48.870;11.074;2023-07-20T13:25:25;34.10;55.70
15546;DHT22;7874;48.870;11.074;2023-07-20T13:27:54;33.80;56.40
15546;DHT22;7874;48.870;11.074;2023-07-20T13:30:23;33.50;55.80
15546;DHT22;7874;48.870;11.074;2023-07-20T13:32:50;31.90;56.50
15546;DHT22;7874;48.870;11.074;2023-07-20T13:35:19;31.30;57.30
15546;DHT22;7874;48.870;11.074;2023-07-20T13:37:46;32.20;57.80
15546;DHT22;7874;48.870;11.074;2023-07-20T13:40:15;33.40;55.70
15546;DHT22;7874;48.870;11.074;2023-07-20T13:44:34;33.70;55.60
15546;DHT22;7874;48.870;11.074;2023-07-20T13:47:02;34.10;55.50
15546;DHT22;7874;48.870;11.074;2023-07-20T13:49:28;33.80;53.70
15546;DHT22;7874;48.870;11.074;2023-07-20T13:51:56;32.30;54.80
15546;DHT22;7874;48.870;11.074;2023-07-20T13:54:23;32.40;55.50
15546;DHT22;7874;48.870;11.074;2023-07-20T13:56:50;33.10;55.40
15546;DHT22;7874;48.870;11.074;2023-07-20T13:59:18;32.70;54.10
15546;DHT22;7874;48.870;11.074;2023-07-20T14:01:46;32.40;54.50
15546;DHT22;7874;48.870;11.074;2023-07-20T14:04:13;31.80;56.20
15546;DHT22;7874;48.870;11.074;2023-07-20T14:06:40;32.10;54.80
15546;DHT22;7874;48.870;11.074;2023-07-20T14:09:07;31.50;56.60
15546;DHT22;7874;48.870;11.074;2023-07-20T14:11:38;30.70;56.20
15546;DHT22;7874;48.870;11.074;2023-07-20T14:14:05;30.50;58.90
15546;DHT22;7874;48.870;11.074;2023-07-20T14:16:32;30.00;57.10
15546;DHT22;7874;48.870;11.074;2023-07-20T14:19:07;29.50;58.30
15546;DHT22;7874;48.870;11.074;2023-07-20T14:21:34;29.20;58.80
15546;DHT22;7874;48.870;11.074;2023-07-20T14:24:04;29.00;59.20
15546;DHT22;7874;48.870;11.074;2023-07-20T14:26:31;29.40;57.30
15546;DHT22;7874;48.870;11.074;2023-07-20T14:28:58;29.60;58.60
15546;DHT22;7874;48.870;11.074;2023-07-20T14:31:25;29.30;58.00
15546;DHT22;7874;48.870;11.074;2023-07-20T14:33:56;28.80;58.80
15546;DHT22;7874;48.870;11.074;2023-07-20T14:36:24;28.40;60.30
15546;DHT22;7874;48.870;11.074;2023-07-20T14:38:51;28.60;60.00
15546;DHT22;7874;48.870;11.074;2023-07-20T14:41:18;28.70;60.80
15546;DHT22;7874;48.870;11.074;2023-07-20T14:43:46;28.90;60.20
15546;DHT22;7874;48.870;11.074;2023-07-20T14:46:14;28.90;59.30
15546;DHT22;7874;48.870;11.074;2023-07-20T14:48:41;28.80;59.70
15546;DHT22;7874;48.870;11.074;2023-07-20T14:51:08;28.80;58.30
15546;DHT22;7874;48.870;11.074;2023-07-20T14:53:37;28.40;59.90
15546;DHT22;7874;48.870;11.074;2023-07-20T14:56:04;28.30;58.10
15546;DHT22;7874;48.870;11.074;2023-07-20T14:58:31;28.10;59.90
15546;DHT22;7874;48.870;11.074;2023-07-20T15:00:58;27.90;59.00
15546;DHT22;7874;48.870;11.074;2023-07-20T15:03:25;27.80;58.80
15546;DHT22;7874;48.870;11.074;2023-07-20T15:05:52;28.00;59.60
15546;DHT22;7874;48.870;11.074;2023-07-20T15:08:19;28.10;59.50
15546;DHT22;7874;48.870;11.074;2023-07-20T15:10:47;27.90;58.30
15546;DHT22;7874;48.870;11.074;2023-07-20T15:13:14;28.00;57.20
15546;DHT22;7874;48.870;11.074;2023-07-20T15:15:41;27.90;57.60
15546;DHT22;7874;48.870;11.074;2023-07-20T15:18:08;27.80;57.70
15546;DHT22;7874;48.870;11.074;2023-07-20T15:20:35;27.90;57.90
15546;DHT22;7874;48.870;11.074;2023-07-20T15:23:02;27.80;59.10
15546;DHT22;7874;48.870;11.074;2023-07-20T15:25:29;27.60;57.90
15546;DHT22;7874;48.870;11.074;2023-07-20T15:27:57;27.50;58.90
15546;DHT22;7874;48.870;11.074;2023-07-20T15:30:24;27.60;57.70
15546;DHT22;7874;48.870;11.074;2023-07-20T15:32:51;27.50;57.80
15546;DHT22;7874;48.870;11.074;2023-07-20T15:35:17;27.30;57.50
15546;DHT22;7874;48.870;11.074;2023-07-20T15:37:44;27.20;58.50
15546;DHT22;7874;48.870;11.074;2023-07-20T15:40:12;27.00;58.90
15546;DHT22;7874;48.870;11.074;2023-07-20T15:42:39;27.00;58.90